createdAt,value
2019-04-10T00:00:59.289Z,21.80
2019-04-10T00:03:37.032Z,22.27
2019-04-10T00:06:08.783Z,22.27
2019-04-10T00:08:40.393Z,22.03
2019-04-10T00:11:12.349Z,21.70
2019-04-10T00:13:44.924Z,22.13
2019-04-10T00:16:18.454Z,23.30
2019-04-10T00:18:50.516Z,23.17
2019-04-10T00:21:22.969Z,23.15
2019-04-10T00:23:55.535Z,22.10
2019-04-10T00:26:27.856Z,22.23
2019-04-10T00:29:00.247Z,21.97
2019-04-10T00:31:33.857Z,22.30
2019-04-10T00:34:06.005Z,22.50
2019-04-10T00:36:38.002Z,20.93
2019-04-10T00:39:12.563Z,21.83
2019-04-10T00:41:44.394Z,22.43
2019-04-10T00:44:16.433Z,21.30
2019-04-10T00:46:48.711Z,21.57
2019-04-10T00:49:21.819Z,21.23
2019-04-10T00:51:53.390Z,20.87
2019-04-10T00:54:26.106Z,22.17
2019-04-10T00:56:58.892Z,20.67
2019-04-10T00:59:30.866Z,19.87
2019-04-10T01:02:02.608Z,21.53
2019-04-10T01:04:34.322Z,19.53
2019-04-10T01:07:07.047Z,19.70
2019-04-10T01:09:39.648Z,20.70
2019-04-10T01:12:11.872Z,20.00
2019-04-10T01:14:43.646Z,20.53
2019-04-10T01:17:15.856Z,21.65
2019-04-10T01:19:48.216Z,20.23
2019-04-10T01:22:21.234Z,19.87
2019-04-10T01:24:54.412Z,20.10
2019-04-10T01:27:27.765Z,20.03
2019-04-10T01:30:00.117Z,20.23
2019-04-10T01:32:32.755Z,19.60
2019-04-10T01:35:05.789Z,19.37
2019-04-10T01:37:48.420Z,18.90
2019-04-10T01:40:11.521Z,18.63
2019-04-10T01:42:58.959Z,19.67
2019-04-10T01:45:17.914Z,18.65
2019-04-10T01:47:49.732Z,19.40
2019-04-10T01:50:22.161Z,19.30
2019-04-10T01:52:55.447Z,19.37
2019-04-10T01:55:30.300Z,18.67
2019-04-10T01:58:03.031Z,19.97
2019-04-10T02:00:35.623Z,19.40
2019-04-10T02:03:07.245Z,18.70
2019-04-10T02:05:39.542Z,19.13
2019-04-10T02:08:14.344Z,19.87
2019-04-10T02:10:45.298Z,19.93
2019-04-10T02:13:17.179Z,21.20
2019-04-10T02:15:50.271Z,19.83
2019-04-10T02:18:22.064Z,20.40
2019-04-10T02:20:55.665Z,20.47
2019-04-10T02:23:28.144Z,18.67
2019-04-10T02:25:59.741Z,18.97
2019-04-10T02:28:33.284Z,20.13
2019-04-10T02:31:07.222Z,19.40
2019-04-10T02:33:38.917Z,21.53
2019-04-10T02:36:10.940Z,22.35
2019-04-10T02:38:57.328Z,21.23
2019-04-10T02:41:17.408Z,21.62
2019-04-10T02:43:49.218Z,21.53
2019-04-10T02:46:21.981Z,21.75
2019-04-10T02:48:58.015Z,20.47
2019-04-10T02:51:32.488Z,21.63
2019-04-10T02:54:05.198Z,20.97
2019-04-10T02:56:39.116Z,21.23
2019-04-10T02:59:11.334Z,22.00
2019-04-10T03:01:44.239Z,21.63
2019-04-10T03:04:16.509Z,21.42
2019-04-10T03:06:48.803Z,20.43
2019-04-10T03:09:40.478Z,21.62
2019-04-10T03:11:55.436Z,20.37
2019-04-10T03:14:28.465Z,20.43
2019-04-10T03:17:00.220Z,19.30
2019-04-10T03:19:31.810Z,20.40
2019-04-10T03:22:04.101Z,20.63
2019-04-10T03:24:35.952Z,20.30
2019-04-10T03:27:07.543Z,21.13
2019-04-10T03:29:39.987Z,20.97
2019-04-10T03:32:36.344Z,20.30
2019-04-10T03:35:11.090Z,20.83
2019-04-10T03:37:42.799Z,20.07
2019-04-10T03:40:15.366Z,19.97
2019-04-10T03:42:47.443Z,20.43
2019-04-10T03:45:20.217Z,20.30
2019-04-10T03:47:52.886Z,18.90
2019-04-10T03:50:25.826Z,21.00
2019-04-10T03:52:57.975Z,20.53
2019-04-10T03:55:29.933Z,19.87
2019-04-10T03:58:03.427Z,20.47
2019-04-10T04:00:35.040Z,20.23
2019-04-10T04:03:08.529Z,18.83
2019-04-10T04:05:40.194Z,19.43
2019-04-10T04:08:13.032Z,18.70
2019-04-10T04:10:44.776Z,18.93
2019-04-10T04:13:17.479Z,19.45
2019-04-10T04:15:50.485Z,18.57
2019-04-10T04:18:22.811Z,18.63
2019-04-10T04:20:55.066Z,18.83
2019-04-10T04:23:27.772Z,17.70
2019-04-10T04:26:00.912Z,18.67
2019-04-10T04:28:34.463Z,18.90
2019-04-10T04:31:06.120Z,18.43
2019-04-10T04:33:38.848Z,18.27
2019-04-10T04:36:10.556Z,17.80
2019-04-10T04:38:43.204Z,18.27
2019-04-10T04:41:15.428Z,18.75
2019-04-10T04:43:48.716Z,18.23
2019-04-10T04:46:21.193Z,17.67
2019-04-10T04:48:53.019Z,17.43
2019-04-10T04:51:26.067Z,17.93
2019-04-10T04:53:59.146Z,17.20
2019-04-10T04:56:31.732Z,17.43
2019-04-10T04:59:03.643Z,17.33
2019-04-10T05:01:35.995Z,16.87
2019-04-10T05:04:09.054Z,16.57
2019-04-10T05:06:41.738Z,17.03
2019-04-10T05:09:25.958Z,16.82
2019-04-10T05:11:46.949Z,15.87
2019-04-10T05:14:19.589Z,16.02
2019-04-10T05:16:52.644Z,16.87
2019-04-10T05:19:25.505Z,16.03
2019-04-10T05:21:57.534Z,14.97
2019-04-10T05:24:30.040Z,15.93
2019-04-10T05:27:02.354Z,15.57
2019-04-10T05:29:34.585Z,15.87
2019-04-10T05:32:07.218Z,15.47
2019-04-10T05:34:40.399Z,15.43
2019-04-10T05:37:12.124Z,16.52
2019-04-10T05:39:49.159Z,14.33
2019-04-10T05:42:18.319Z,14.40
2019-04-10T05:44:50.269Z,15.13
2019-04-10T05:47:22.043Z,15.73
2019-04-10T05:49:53.793Z,14.70
2019-04-10T05:52:26.679Z,15.77
2019-04-10T05:54:58.588Z,14.83
2019-04-10T05:57:30.802Z,14.97
2019-04-10T06:00:05.126Z,15.43
2019-04-10T06:02:37.036Z,14.80
2019-04-10T06:05:09.745Z,15.20
2019-04-10T06:07:41.649Z,13.97
2019-04-10T06:10:13.402Z,14.10
2019-04-10T06:12:46.698Z,14.00
2019-04-10T06:15:19.106Z,13.72
2019-04-10T06:17:51.103Z,15.10
2019-04-10T06:20:23.259Z,13.70
2019-04-10T06:22:55.847Z,14.07
2019-04-10T06:25:28.774Z,13.73
2019-04-10T06:28:01.143Z,13.53
2019-04-10T06:30:33.996Z,14.00
2019-04-10T06:33:06.024Z,14.07
2019-04-10T06:35:37.895Z,14.43
2019-04-10T06:38:10.609Z,13.67
2019-04-10T06:40:43.955Z,13.73
2019-04-10T06:43:15.632Z,13.18
2019-04-10T06:45:48.228Z,13.33
2019-04-10T06:48:20.008Z,12.37
2019-04-10T06:50:51.903Z,12.83
2019-04-10T06:53:24.711Z,12.20
2019-04-10T06:55:57.313Z,12.53
2019-04-10T06:58:30.618Z,11.27
2019-04-10T07:01:04.136Z,12.00
2019-04-10T07:03:49.469Z,10.90
2019-04-10T07:06:16.966Z,11.07
2019-04-10T07:08:48.857Z,11.73
2019-04-10T07:11:19.071Z,11.17
2019-04-10T07:13:51.242Z,10.83
2019-04-10T07:16:26.630Z,11.13
2019-04-10T07:18:59.887Z,11.20
2019-04-10T07:21:35.529Z,10.57
2019-04-10T07:24:08.304Z,10.87
2019-04-10T07:26:43.705Z,11.97
2019-04-10T07:29:19.746Z,11.37
2019-04-10T07:31:48.566Z,11.37
2019-04-10T07:34:22.058Z,10.83
2019-04-10T07:36:54.033Z,10.63
2019-04-10T07:39:29.229Z,11.07
2019-04-10T07:41:59.992Z,10.47
2019-04-10T07:44:32.615Z,11.13
2019-04-10T07:47:04.759Z,11.07
2019-04-10T07:49:39.428Z,10.95
2019-04-10T07:52:10.561Z,10.95
2019-04-10T07:54:44.610Z,11.57
2019-04-10T07:57:16.119Z,10.88
2019-04-10T07:59:47.732Z,10.43
2019-04-10T08:02:21.163Z,10.38
2019-04-10T08:04:53.906Z,11.00
2019-04-10T08:07:30.368Z,10.77
2019-04-10T08:10:00.062Z,10.98
2019-04-10T08:12:39.496Z,11.60
2019-04-10T08:15:06.944Z,11.30
2019-04-10T08:17:39.067Z,10.57
2019-04-10T08:20:11.712Z,10.08
2019-04-10T08:22:44.807Z,11.07
2019-04-10T08:25:16.723Z,10.93
2019-04-10T08:27:50.066Z,11.07
2019-04-10T08:30:22.025Z,10.68
2019-04-10T08:33:00.753Z,10.83
2019-04-10T08:35:27.406Z,11.23
2019-04-10T08:37:59.291Z,10.93
2019-04-10T08:40:32.089Z,11.37
2019-04-10T08:43:04.165Z,11.40
2019-04-10T08:45:44.945Z,11.70
2019-04-10T08:48:10.080Z,11.20
2019-04-10T08:50:42.009Z,11.60
2019-04-10T08:53:13.916Z,10.90
2019-04-10T08:55:46.237Z,11.05
2019-04-10T08:58:18.807Z,11.43
2019-04-10T09:00:52.729Z,11.28
2019-04-10T09:03:25.021Z,11.00
2019-04-10T09:05:56.815Z,10.90
2019-04-10T09:08:28.828Z,11.57
2019-04-10T09:11:00.988Z,11.13
2019-04-10T09:13:32.836Z,11.50
2019-04-10T09:16:04.630Z,11.13
2019-04-10T09:18:37.215Z,11.23
2019-04-10T09:21:09.061Z,11.63
2019-04-10T09:23:47.291Z,11.47
2019-04-10T09:26:15.537Z,11.70
2019-04-10T09:28:49.481Z,11.50
2019-04-10T09:31:21.800Z,10.90
2019-04-10T09:33:53.753Z,11.83
2019-04-10T09:36:26.965Z,11.30
2019-04-10T09:38:59.081Z,11.87
2019-04-10T09:41:32.027Z,11.48
2019-04-10T09:44:04.528Z,11.37
2019-04-10T09:46:37.445Z,12.97
2019-04-10T09:49:09.539Z,11.53
2019-04-10T09:51:42.457Z,12.30
2019-04-10T09:54:14.124Z,11.33
2019-04-10T09:56:46.353Z,12.07
2019-04-10T09:59:18.094Z,11.70
2019-04-10T10:01:51.415Z,11.47
2019-04-10T10:04:23.658Z,11.73
2019-04-10T10:06:55.809Z,11.13
2019-04-10T10:09:29.256Z,11.63
2019-04-10T10:12:01.740Z,11.77
2019-04-10T10:14:33.438Z,12.10
2019-04-10T10:17:06.537Z,11.60
2019-04-10T10:19:40.620Z,11.57
2019-04-10T10:22:14.697Z,11.07
2019-04-10T10:24:46.872Z,11.53
2019-04-10T10:27:19.986Z,11.80
2019-04-10T10:29:53.556Z,11.90
2019-04-10T10:32:25.299Z,11.93
2019-04-10T10:34:58.989Z,12.67
2019-04-10T10:37:30.574Z,11.60
2019-04-10T10:40:03.455Z,12.60
2019-04-10T10:42:38.503Z,12.13
2019-04-10T10:45:12.504Z,11.33
2019-04-10T10:47:44.329Z,12.87
2019-04-10T10:50:17.181Z,12.90
2019-04-10T10:52:50.078Z,12.60
2019-04-10T10:55:23.281Z,12.28
2019-04-10T10:57:56.174Z,11.97
2019-04-10T11:00:29.321Z,11.22
2019-04-10T11:03:02.249Z,11.50
2019-04-10T11:05:37.188Z,10.63
2019-04-10T11:08:08.984Z,11.13
2019-04-10T11:10:41.314Z,11.27
2019-04-10T11:13:13.349Z,11.10
2019-04-10T11:15:45.960Z,10.90
2019-04-10T11:18:19.480Z,10.57
2019-04-10T11:20:52.287Z,9.43
2019-04-10T11:23:24.558Z,10.87
2019-04-10T11:25:57.699Z,10.33
2019-04-10T11:31:03.264Z,10.13
2019-04-10T11:33:37.291Z,10.72
2019-04-10T11:36:09.830Z,11.73
2019-04-10T11:38:42.894Z,10.97
2019-04-10T11:41:18.915Z,10.93
2019-04-10T11:43:52.602Z,11.33
2019-04-10T11:46:28.290Z,10.97
2019-04-10T11:48:57.806Z,10.30
2019-04-10T11:54:05.371Z,10.70
2019-04-10T11:56:38.375Z,10.93
2019-04-10T11:59:12.356Z,10.57
2019-04-10T12:01:46.206Z,10.47
2019-04-10T12:04:19.554Z,12.70
2019-04-10T12:06:54.054Z,9.87
2019-04-10T12:10:16.821Z,10.05
2019-04-10T12:11:57.391Z,10.00
2019-04-10T12:14:29.986Z,10.37
2019-04-10T12:17:01.915Z,10.30
2019-04-10T12:19:33.589Z,10.33
2019-04-10T12:22:05.917Z,10.20
2019-04-10T12:24:38.528Z,10.47
2019-04-10T12:27:10.567Z,10.63
2019-04-10T12:29:43.887Z,11.57
2019-04-10T12:32:16.659Z,10.60
2019-04-10T12:34:49.018Z,10.20
2019-04-10T12:37:21.011Z,10.70
2019-04-10T12:39:53.028Z,10.70
2019-04-10T12:42:24.559Z,10.63
2019-04-10T12:44:56.386Z,11.57
2019-04-10T12:47:28.525Z,10.83
2019-04-10T12:50:00.327Z,10.20
2019-04-10T12:52:34.571Z,11.63
2019-04-10T12:55:06.677Z,11.43
2019-04-10T12:57:39.157Z,10.90
2019-04-10T13:00:15.968Z,11.18
2019-04-10T13:02:47.778Z,10.37
2019-04-10T13:05:20.911Z,11.23
2019-04-10T13:07:53.976Z,10.60
2019-04-10T13:10:25.915Z,10.87
2019-04-10T13:12:57.762Z,10.27
2019-04-10T13:15:31.888Z,9.80
2019-04-10T13:18:03.936Z,10.80
2019-04-10T13:20:35.746Z,11.07
2019-04-10T13:23:07.237Z,10.37
2019-04-10T13:25:39.161Z,10.57
2019-04-10T13:28:11.570Z,10.80
2019-04-10T13:30:48.879Z,10.70
2019-04-10T13:33:17.313Z,10.80
2019-04-10T13:35:49.496Z,10.33
2019-04-10T13:38:27.628Z,11.00
2019-04-10T13:40:54.840Z,11.10
2019-04-10T13:43:27.660Z,10.70
2019-04-10T13:46:00.832Z,11.27
2019-04-10T13:48:33.445Z,10.67
2019-04-10T13:51:05.886Z,10.87
2019-04-10T13:53:38.306Z,11.17
2019-04-10T13:56:09.826Z,11.08
2019-04-10T13:58:42.617Z,11.30
2019-04-10T14:01:19.657Z,10.93
2019-04-10T14:03:52.437Z,10.17
2019-04-10T14:06:25.448Z,11.60
2019-04-10T14:09:12.235Z,10.93
2019-04-10T14:11:30.613Z,10.83
2019-04-10T14:14:02.523Z,10.30
2019-04-10T14:16:35.043Z,11.30
2019-04-10T14:19:07.738Z,10.73
2019-04-10T14:21:40.854Z,10.30
2019-04-10T14:24:13.247Z,10.55
2019-04-10T14:27:09.101Z,11.67
2019-04-10T14:29:40.973Z,10.40
2019-04-10T14:32:18.449Z,9.90
2019-04-10T14:34:50.544Z,11.20
2019-04-10T14:37:23.267Z,9.95
2019-04-10T14:39:55.781Z,10.93
2019-04-10T14:42:28.533Z,11.00
2019-04-10T14:45:01.394Z,10.90
2019-04-10T14:47:34.359Z,11.33
2019-04-10T14:50:07.526Z,11.28
2019-04-10T14:52:39.278Z,12.30
2019-04-10T14:55:12.455Z,11.80
2019-04-10T14:57:45.490Z,11.83
2019-04-10T15:00:31.163Z,11.77
2019-04-10T15:03:04.358Z,12.17
2019-04-10T15:05:46.487Z,11.87
2019-04-10T15:08:09.935Z,12.50
2019-04-10T15:10:43.948Z,11.93
2019-04-10T15:13:19.740Z,11.23
2019-04-10T15:15:50.391Z,11.20
2019-04-10T15:18:22.563Z,11.68
2019-04-10T15:20:54.457Z,11.57
2019-04-10T15:23:25.995Z,11.30
2019-04-10T15:25:59.881Z,11.80
2019-04-10T15:28:33.923Z,12.10
2019-04-10T15:31:06.840Z,11.50
2019-04-10T15:33:39.435Z,12.20
2019-04-10T15:36:11.601Z,12.53
2019-04-10T15:38:44.361Z,12.80
2019-04-10T15:41:18.979Z,12.55
2019-04-10T15:43:51.738Z,12.57
2019-04-10T15:46:24.794Z,12.55
2019-04-10T15:48:56.919Z,11.90
2019-04-10T15:51:30.020Z,11.47
2019-04-10T15:54:02.042Z,11.73
2019-04-10T15:56:34.140Z,11.67
2019-04-10T15:59:06.263Z,11.93
2019-04-10T16:01:37.886Z,11.70
2019-04-10T16:04:09.866Z,12.03
2019-04-10T16:06:41.926Z,12.37
2019-04-10T16:09:15.067Z,12.27
2019-04-10T16:12:14.618Z,12.20
2019-04-10T16:14:46.629Z,12.43
2019-04-10T16:17:41.945Z,14.70
2019-04-10T16:20:33.611Z,12.20
2019-04-10T16:23:14.907Z,11.93
2019-04-10T16:25:52.389Z,12.07
2019-04-10T16:28:24.133Z,13.20
2019-04-10T16:30:57.202Z,12.27
2019-04-10T16:33:29.422Z,12.93
2019-04-10T16:36:03.078Z,13.33
2019-04-10T16:38:34.864Z,13.40
2019-04-10T16:41:06.651Z,13.83
2019-04-10T16:43:38.349Z,13.23
2019-04-10T16:46:11.121Z,15.00
2019-04-10T16:48:44.210Z,13.13
2019-04-10T16:51:17.242Z,14.00
2019-04-10T16:53:49.932Z,14.67
2019-04-10T16:56:25.428Z,14.68
2019-04-10T16:58:58.474Z,15.37
2019-04-10T17:01:30.950Z,15.63
2019-04-10T17:04:05.021Z,14.07
2019-04-10T17:06:36.953Z,15.07
2019-04-10T17:09:12.254Z,15.20
2019-04-10T17:11:45.134Z,16.03
2019-04-10T17:14:17.547Z,15.55
2019-04-10T17:16:50.314Z,15.63
2019-04-10T17:19:23.598Z,16.57
2019-04-10T17:21:56.877Z,16.50
2019-04-10T17:24:29.302Z,15.77
2019-04-10T17:27:01.503Z,16.20
2019-04-10T17:29:33.591Z,14.27
2019-04-10T17:32:06.981Z,14.30
2019-04-10T17:34:38.998Z,14.07
2019-04-10T17:37:11.931Z,14.77
2019-04-10T17:39:43.921Z,14.70
2019-04-10T17:42:16.582Z,13.97
2019-04-10T17:44:49.969Z,14.97
2019-04-10T17:47:22.877Z,14.73
2019-04-10T17:49:55.946Z,14.93
2019-04-10T17:52:28.107Z,14.73
2019-04-10T17:55:00.886Z,15.77
2019-04-10T17:57:38.552Z,16.00
2019-04-10T18:00:15.890Z,15.40
2019-04-10T18:02:48.556Z,15.77
2019-04-10T18:05:20.511Z,16.93
2019-04-10T18:07:52.876Z,17.00
2019-04-10T18:10:34.376Z,17.47
2019-04-10T18:13:00.879Z,17.40
2019-04-10T18:15:35.826Z,18.93
2019-04-10T18:18:08.303Z,18.43
2019-04-10T18:20:42.236Z,18.57
2019-04-10T18:23:15.516Z,18.52
2019-04-10T18:25:47.337Z,18.93
2019-04-10T18:28:21.299Z,18.83
2019-04-10T18:30:54.486Z,18.60
2019-04-10T18:33:26.533Z,18.73
2019-04-10T18:35:59.462Z,19.10
2019-04-10T18:38:31.741Z,18.70
2019-04-10T18:41:06.876Z,19.87
2019-04-10T18:43:37.740Z,19.57
2019-04-10T18:46:13.392Z,19.17
2019-04-10T18:48:45.596Z,18.40
2019-04-10T18:51:16.365Z,17.85
2019-04-10T18:53:49.288Z,19.70
2019-04-10T18:56:22.218Z,17.60
2019-04-10T18:59:06.726Z,18.13
2019-04-10T19:01:56.082Z,18.60
2019-04-10T19:04:41.747Z,18.45
2019-04-10T19:07:15.382Z,18.85
2019-04-10T19:09:47.235Z,18.73
2019-04-10T19:12:19.301Z,18.63
2019-04-10T19:14:51.144Z,19.27
2019-04-10T19:17:23.068Z,19.13
2019-04-10T19:19:56.754Z,20.60
2019-04-10T19:22:28.574Z,20.87
2019-04-10T19:25:00.744Z,19.40
2019-04-10T19:27:32.407Z,19.10
2019-04-10T19:30:06.699Z,19.00
2019-04-10T19:32:38.792Z,19.33
2019-04-10T19:35:10.902Z,19.57
2019-04-10T19:37:43.325Z,17.97
2019-04-10T19:40:15.909Z,17.40
2019-04-10T19:42:47.742Z,16.93
2019-04-10T19:45:19.569Z,16.87
2019-04-10T19:47:52.721Z,16.23
2019-04-10T19:50:25.533Z,16.53
2019-04-10T19:52:57.163Z,16.10
2019-04-10T19:55:29.626Z,15.77
2019-04-10T19:58:01.764Z,16.10
2019-04-10T20:00:36.753Z,15.60
2019-04-10T20:03:08.653Z,15.47
2019-04-10T20:05:41.513Z,15.90
2019-04-10T20:08:13.281Z,15.58
2019-04-10T20:10:45.705Z,15.63
2019-04-10T20:13:18.703Z,15.93
2019-04-10T20:15:50.958Z,16.17
2019-04-10T20:18:23.002Z,16.10
2019-04-10T20:20:55.464Z,15.50
2019-04-10T20:23:27.898Z,15.17
2019-04-10T20:26:01.353Z,16.12
2019-04-10T20:28:33.159Z,17.03
2019-04-10T20:31:07.009Z,17.20
2019-04-10T20:33:38.911Z,17.37
2019-04-10T20:36:11.058Z,17.65
2019-04-10T20:38:43.072Z,17.43
2019-04-10T20:41:16.315Z,17.98
2019-04-10T20:43:49.584Z,16.27
2019-04-10T20:46:22.250Z,17.65
2019-04-10T20:48:55.075Z,17.40
2019-04-10T20:51:26.864Z,18.27
2019-04-10T20:53:58.625Z,17.80
2019-04-10T20:56:30.697Z,18.37
2019-04-10T20:59:03.506Z,17.50
2019-04-10T21:01:35.186Z,17.60
2019-04-10T21:04:07.849Z,18.20
2019-04-10T21:06:41.934Z,17.67
2019-04-10T21:09:13.459Z,17.20
2019-04-10T21:11:58.059Z,17.47
2019-04-10T21:14:21.103Z,16.90
2019-04-10T21:16:53.002Z,16.95
2019-04-10T21:19:24.925Z,16.87
2019-04-10T21:21:57.512Z,16.10
2019-04-10T21:24:31.545Z,16.77
2019-04-10T21:27:03.720Z,15.97
2019-04-10T21:30:07.271Z,16.63
2019-04-10T21:33:12.127Z,17.53
2019-04-10T21:35:45.565Z,16.73
2019-04-10T21:38:17.660Z,16.10
2019-04-10T21:40:49.503Z,15.97
2019-04-10T21:43:22.787Z,15.67
2019-04-10T21:45:55.375Z,15.90
2019-04-10T21:48:27.562Z,15.47
2019-04-10T21:51:00.582Z,15.73
2019-04-10T21:53:34.091Z,15.27
2019-04-10T21:56:08.510Z,15.63
2019-04-10T21:58:40.853Z,15.37
2019-04-10T22:01:13.498Z,14.97
2019-04-10T22:03:45.621Z,15.03
2019-04-10T22:06:49.433Z,15.33
2019-04-10T22:09:34.897Z,15.18
2019-04-10T22:12:25.961Z,16.13
2019-04-10T22:14:54.041Z,14.67
2019-04-10T22:17:26.814Z,15.13
2019-04-10T22:19:59.443Z,15.33
2019-04-10T22:22:32.957Z,14.80
2019-04-10T22:25:05.341Z,15.63
2019-04-10T22:27:37.455Z,14.73
2019-04-10T22:30:10.452Z,15.60
2019-04-10T22:32:42.842Z,15.33
2019-04-10T22:35:15.247Z,15.43
2019-04-10T22:37:48.336Z,16.30
2019-04-10T22:40:20.160Z,16.60
2019-04-10T22:42:53.264Z,16.77
2019-04-10T22:45:29.227Z,15.37
2019-04-10T22:48:01.738Z,16.40
2019-04-10T22:50:34.511Z,17.10
2019-04-10T22:53:06.856Z,17.10
2019-04-10T22:55:42.614Z,17.80
2019-04-10T22:58:14.967Z,17.77
2019-04-10T23:00:48.450Z,17.10
2019-04-10T23:03:20.331Z,17.93
2019-04-10T23:05:53.069Z,17.97
2019-04-10T23:08:25.398Z,19.47
2019-04-10T23:10:57.454Z,19.50
2019-04-10T23:13:30.130Z,18.33
2019-04-10T23:16:02.041Z,19.93
2019-04-10T23:18:33.929Z,20.10
2019-04-10T23:21:06.101Z,19.93
2019-04-10T23:23:39.025Z,19.40
2019-04-10T23:26:11.130Z,20.00
2019-04-10T23:28:43.999Z,19.13
2019-04-10T23:31:15.632Z,18.55
2019-04-10T23:33:48.272Z,18.77
2019-04-10T23:36:20.269Z,19.17
2019-04-10T23:38:52.170Z,17.87
2019-04-10T23:41:25.479Z,19.67
2019-04-10T23:43:57.793Z,17.53
2019-04-10T23:46:30.456Z,17.77
2019-04-10T23:49:03.937Z,17.60
2019-04-10T23:51:39.098Z,18.13
2019-04-10T23:54:11.193Z,18.35
2019-04-10T23:56:44.785Z,17.60
2019-04-10T23:59:18.248Z,16.93
